Main page
METAR-TAF:

METAR-TAF

Airports :

Richland Airport

Richland, Washington, United States

latitude: 46-18-20N, longitude: 119-18-15W, elevation: 394 ft

Current weather observation

The report was made 13 minutes ago, at 17:15 UTC
Wind 6 mph from the East/Southeast
Temperature 63°F
Humidity 39%
Pressure 29.98 in. Hg
Visibility: 10 miles
Scattered clouds at a height of 12000 ft

METAR: KRLD 181715Z AUTO 11005KT 10SM SCT120 17/03 A2998 RMK AO2 T01730032

Time: 10:28 (17:28 UTC)


TAF: missing

Weather observations and forecasts of more than 4000 airports (METAR and TAF reports).

The available stations are represented by yellow and red dots on the map.

Hover mouse over dot to see the name of the station.

Then click to see weather observations and forecasts.

To change the map : click on the green buttons with a black cross to zoom in, on the green button with a dash to zoom out, or on the green arrows for adjacent maps.


METAR-TAF: